createdAt,value
2023-03-16T00:02:31.979Z,98530.19
2023-03-16T00:05:41.760Z,98531.59
2023-03-16T00:08:47.665Z,98540.91
2023-03-16T00:11:54.216Z,98536.44
2023-03-16T00:15:02.067Z,98536.75
2023-03-16T00:18:08.832Z,98539.09
2023-03-16T00:21:18.518Z,98538.75
2023-03-16T00:24:25.274Z,98540.97
2023-03-16T00:27:31.130Z,98544.03
2023-03-16T00:30:37.933Z,98550.00
2023-03-16T00:33:45.650Z,98548.81
2023-03-16T00:36:55.355Z,98547.44
2023-03-16T00:40:08.056Z,98546.88
2023-03-16T00:43:18.969Z,98540.78
2023-03-16T00:46:28.041Z,98542.66
2023-03-16T00:49:35.654Z,98540.19
2023-03-16T00:52:45.096Z,98544.31
2023-03-16T00:55:53.564Z,98545.50
2023-03-16T00:59:00.685Z,98539.72
2023-03-16T01:02:09.718Z,98549.59
2023-03-16T01:05:16.711Z,98549.84
2023-03-16T01:08:28.091Z,98552.78
2023-03-16T01:11:35.555Z,98545.72
2023-03-16T01:14:45.936Z,98550.91
2023-03-16T01:17:51.948Z,98556.47
2023-03-16T01:20:58.692Z,98554.44
2023-03-16T01:24:07.649Z,98558.59
2023-03-16T01:27:15.319Z,98554.59
2023-03-16T01:30:24.165Z,98562.84
2023-03-16T01:33:32.223Z,98561.41
2023-03-16T01:36:38.097Z,98561.06
2023-03-16T01:39:49.246Z,98565.41
2023-03-16T01:43:07.218Z,98570.13
2023-03-16T01:46:24.105Z,98572.34
2023-03-16T01:49:39.512Z,98571.78
2023-03-16T01:52:46.368Z,98573.97
2023-03-16T01:55:56.572Z,98565.84
2023-03-16T01:59:13.994Z,98572.31
2023-03-16T02:02:26.690Z,98571.25
2023-03-16T02:05:44.678Z,98576.09
2023-03-16T02:08:57.065Z,98572.81
2023-03-16T02:12:09.682Z,98572.56
2023-03-16T02:15:19.670Z,98576.56
2023-03-16T02:18:26.705Z,98588.38
2023-03-16T02:21:49.923Z,98582.25
2023-03-16T02:24:57.981Z,98597.56
2023-03-16T02:28:23.646Z,98595.03
2023-03-16T02:31:34.346Z,98612.28
2023-03-16T02:34:42.104Z,98610.72
2023-03-16T02:37:49.051Z,98614.56
2023-03-16T02:41:04.277Z,98625.03
2023-03-16T02:44:20.625Z,98630.66
2023-03-16T02:47:38.696Z,98636.91
2023-03-16T02:50:50.343Z,98638.63
2023-03-16T02:53:56.155Z,98642.19
2023-03-16T02:57:06.575Z,98654.91
2023-03-16T03:00:18.046Z,98658.09
2023-03-16T03:03:34.464Z,98652.44
2023-03-16T03:06:40.403Z,98662.66
2023-03-16T03:09:47.280Z,98658.63
2023-03-16T03:12:53.191Z,98658.16
2023-03-16T03:16:03.418Z,98661.47
2023-03-16T03:19:11.829Z,98659.97
2023-03-16T03:22:19.771Z,98661.53
2023-03-16T03:25:26.915Z,98664.31
2023-03-16T03:28:34.839Z,98666.28
2023-03-16T03:31:40.732Z,98667.56
2023-03-16T03:34:50.023Z,98677.47
2023-03-16T03:37:55.955Z,98684.75
2023-03-16T03:41:02.807Z,98687.03
2023-03-16T03:44:15.312Z,98689.06
2023-03-16T03:47:22.626Z,98696.84
2023-03-16T03:50:31.966Z,98697.25
2023-03-16T03:54:07.532Z,98701.69
2023-03-16T03:57:24.372Z,98696.84
2023-03-16T04:00:31.239Z,98685.03
2023-03-16T04:03:37.883Z,98707.41
2023-03-16T04:06:48.219Z,98704.28
2023-03-16T04:09:54.854Z,98712.44
2023-03-16T04:13:06.406Z,98709.78
2023-03-16T04:16:16.533Z,98710.00
2023-03-16T04:19:26.046Z,98707.50
2023-03-16T04:22:37.369Z,98719.50
2023-03-16T04:25:43.357Z,98720.34
2023-03-16T04:28:50.584Z,98719.38
2023-03-16T04:31:58.573Z,98723.75
2023-03-16T04:35:09.409Z,98727.88
2023-03-16T04:38:29.527Z,98725.09
2023-03-16T04:41:45.850Z,98717.53
2023-03-16T04:44:56.967Z,98723.13
2023-03-16T04:48:06.002Z,98721.16
2023-03-16T04:51:12.013Z,98731.94
2023-03-16T04:54:27.201Z,98733.09
2023-03-16T04:57:33.205Z,98731.13
2023-03-16T05:00:40.896Z,98730.81
2023-03-16T05:03:57.060Z,98741.69
2023-03-16T05:07:05.186Z,98741.56
2023-03-16T05:10:22.125Z,98740.00
2023-03-16T05:13:28.916Z,98747.16
2023-03-16T05:16:37.740Z,98741.47
2023-03-16T05:19:45.457Z,98746.75
2023-03-16T05:22:54.007Z,98751.19
2023-03-16T05:26:13.403Z,98755.09
2023-03-16T05:29:19.852Z,98754.38
2023-03-16T05:32:26.608Z,98760.41
2023-03-16T05:35:32.830Z,98768.03
2023-03-16T05:38:45.808Z,98772.81
2023-03-16T05:42:01.970Z,98774.03
2023-03-16T05:45:19.070Z,98775.47
2023-03-16T05:48:37.836Z,98775.16
2023-03-16T05:51:45.943Z,98776.94
2023-03-16T05:54:52.753Z,98784.78
2023-03-16T05:58:03.802Z,98783.88
2023-03-16T06:01:13.530Z,98793.81
2023-03-16T06:04:23.437Z,98808.22
2023-03-16T06:07:32.602Z,98806.13
2023-03-16T06:10:39.956Z,98812.03
2023-03-16T06:13:48.437Z,98812.75
2023-03-16T06:16:55.791Z,98819.31
2023-03-16T06:20:02.035Z,98811.97
2023-03-16T06:23:09.265Z,98813.41
2023-03-16T06:26:16.052Z,98818.22
2023-03-16T06:29:27.739Z,98829.38
2023-03-16T06:32:34.838Z,98824.59
2023-03-16T06:35:41.888Z,98827.94
2023-03-16T06:38:56.053Z,98835.19
2023-03-16T06:42:06.790Z,98830.34
2023-03-16T06:45:16.817Z,98833.00
2023-03-16T06:48:23.787Z,98825.09
2023-03-16T06:51:30.300Z,98828.59
2023-03-16T06:54:37.916Z,98838.34
2023-03-16T06:57:45.295Z,98843.19
2023-03-16T07:00:54.696Z,98836.59
2023-03-16T07:04:01.979Z,98834.66
2023-03-16T07:07:12.095Z,98837.28
2023-03-16T07:10:21.074Z,98842.28
2023-03-16T07:13:27.594Z,98858.50
2023-03-16T07:16:36.564Z,98855.50
2023-03-16T07:19:46.420Z,98860.41
2023-03-16T07:22:53.255Z,98859.09
2023-03-16T07:26:01.217Z,98860.88
2023-03-16T07:29:07.868Z,98868.91
2023-03-16T07:32:17.445Z,98863.59
2023-03-16T07:35:26.698Z,98859.56
2023-03-16T07:38:35.627Z,98867.38
2023-03-16T07:41:45.564Z,98860.56
2023-03-16T07:44:57.792Z,98865.09
2023-03-16T07:48:08.817Z,98864.91
2023-03-16T07:51:25.387Z,98864.75
2023-03-16T07:54:31.704Z,98866.50
2023-03-16T07:57:39.383Z,98863.50
2023-03-16T08:00:45.417Z,98867.63
2023-03-16T08:03:54.649Z,98867.56
2023-03-16T08:07:02.334Z,98872.03
2023-03-16T08:10:23.237Z,98874.22
2023-03-16T08:13:35.792Z,98873.94
2023-03-16T08:16:43.802Z,98879.59
2023-03-16T08:19:52.340Z,98880.72
2023-03-16T08:23:00.575Z,98880.94
2023-03-16T08:26:13.269Z,98879.41
2023-03-16T08:29:19.898Z,98887.78
2023-03-16T08:32:27.033Z,98886.53
2023-03-16T08:35:36.409Z,98889.63
2023-03-16T08:38:44.136Z,98889.84
2023-03-16T08:41:52.361Z,98897.34
2023-03-16T08:45:12.286Z,98901.00
2023-03-16T08:48:22.307Z,98898.41
2023-03-16T08:51:32.779Z,98901.63
2023-03-16T08:54:39.451Z,98897.75
2023-03-16T08:57:46.537Z,98897.97
2023-03-16T09:00:53.099Z,98899.34
2023-03-16T09:04:00.709Z,98899.44
2023-03-16T09:07:10.564Z,98889.34
2023-03-16T09:10:19.119Z,98909.81
2023-03-16T09:13:26.138Z,98907.84
2023-03-16T09:16:34.641Z,98905.16
2023-03-16T09:19:52.188Z,98902.19
2023-03-16T09:23:02.135Z,98902.78
2023-03-16T09:26:10.731Z,98893.91
2023-03-16T09:29:16.796Z,98903.25
2023-03-16T09:32:26.482Z,98905.69
2023-03-16T09:35:34.357Z,98902.63
2023-03-16T09:38:45.298Z,98896.72
2023-03-16T09:42:06.063Z,98905.25
2023-03-16T09:45:29.271Z,98906.72
2023-03-16T09:48:41.332Z,98900.84
2023-03-16T09:52:00.726Z,98906.59
2023-03-16T09:55:29.207Z,98904.56
2023-03-16T09:58:36.815Z,98900.66
2023-03-16T10:02:04.553Z,98885.75
2023-03-16T10:05:17.264Z,98909.69
2023-03-16T10:08:29.253Z,98916.16
2023-03-16T10:11:47.129Z,98917.91
2023-03-16T10:15:02.028Z,98923.63
2023-03-16T10:18:19.283Z,98920.25
2023-03-16T10:21:27.472Z,98927.47
2023-03-16T10:24:57.017Z,98930.25
2023-03-16T10:28:05.689Z,98929.03
2023-03-16T10:31:18.258Z,98932.94
2023-03-16T10:34:25.007Z,98934.06
2023-03-16T10:37:34.282Z,98937.22
2023-03-16T10:40:43.034Z,98939.28
2023-03-16T10:43:57.524Z,98927.81
2023-03-16T10:47:08.469Z,98923.13
2023-03-16T10:50:21.220Z,98920.97
2023-03-16T10:53:33.138Z,98922.28
2023-03-16T10:56:40.482Z,98936.97
2023-03-16T10:59:52.964Z,98935.69
2023-03-16T11:03:02.662Z,98937.59
2023-03-16T11:06:20.736Z,98933.41
2023-03-16T11:09:34.235Z,98913.00
2023-03-16T11:12:40.082Z,98908.50
2023-03-16T11:15:58.798Z,98916.38
2023-03-16T11:19:20.905Z,98917.53
2023-03-16T11:22:30.361Z,98919.09
2023-03-16T11:25:48.157Z,98925.63
2023-03-16T11:29:09.480Z,98913.63
2023-03-16T11:32:28.918Z,98906.84
2023-03-16T11:35:59.187Z,98903.34
2023-03-16T11:39:26.839Z,98920.94
2023-03-16T11:42:41.777Z,98912.25
2023-03-16T11:46:05.710Z,98894.50
2023-03-16T11:49:58.365Z,98883.53
2023-03-16T11:53:21.373Z,98885.91
2023-03-16T11:56:37.701Z,98888.91
2023-03-16T12:00:10.708Z,98887.88
2023-03-16T12:04:02.399Z,98893.81
2023-03-16T12:07:39.718Z,98889.88
2023-03-16T12:10:58.750Z,98897.50
2023-03-16T12:14:19.820Z,98895.88
2023-03-16T12:17:35.289Z,98900.34
2023-03-16T12:20:53.097Z,98900.78
2023-03-16T12:24:07.335Z,98904.53
2023-03-16T12:27:21.384Z,98895.13
2023-03-16T12:30:58.292Z,98895.69
2023-03-16T12:34:26.054Z,98896.38
2023-03-16T12:37:48.216Z,98891.38
2023-03-16T12:41:19.991Z,98897.31
2023-03-16T12:44:40.028Z,98890.75
2023-03-16T12:48:00.968Z,98894.34
2023-03-16T12:51:13.439Z,98891.75
2023-03-16T12:54:25.437Z,98893.78
2023-03-16T12:57:37.597Z,98897.50
2023-03-16T13:00:45.431Z,98899.13
2023-03-16T13:04:04.222Z,98898.78
2023-03-16T13:07:19.478Z,98896.94
2023-03-16T13:10:27.005Z,98877.44
2023-03-16T13:13:37.421Z,98889.53
2023-03-16T13:16:45.671Z,98896.81
2023-03-16T13:20:06.894Z,98887.81
2023-03-16T13:23:30.316Z,98899.34
2023-03-16T13:26:45.541Z,98891.56
2023-03-16T13:30:05.474Z,98898.72
2023-03-16T13:33:25.827Z,98890.53
2023-03-16T13:36:35.095Z,98898.06
2023-03-16T13:39:40.965Z,98903.94
2023-03-16T13:42:53.312Z,98904.03
2023-03-16T13:46:03.692Z,98896.00
2023-03-16T13:49:10.382Z,98896.91
2023-03-16T13:52:28.924Z,98895.63
2023-03-16T13:55:41.750Z,98890.44
2023-03-16T13:58:52.867Z,98887.34
2023-03-16T14:02:04.604Z,98891.41
2023-03-16T14:05:15.908Z,98882.00
2023-03-16T14:08:26.964Z,98881.28
2023-03-16T14:11:33.742Z,98878.22
2023-03-16T14:14:43.901Z,98860.53
2023-03-16T14:17:52.600Z,98884.34
2023-03-16T14:21:00.339Z,98884.56
2023-03-16T14:24:09.604Z,98880.72
2023-03-16T14:27:33.003Z,98884.81
2023-03-16T14:30:38.855Z,98876.44
2023-03-16T14:33:48.331Z,98877.84
2023-03-16T14:36:54.290Z,98871.22
2023-03-16T14:40:09.186Z,98871.72
2023-03-16T14:43:15.825Z,98874.06
2023-03-16T14:46:33.629Z,98884.97
2023-03-16T14:49:43.609Z,98877.41
2023-03-16T14:52:51.989Z,98885.38
2023-03-16T14:56:01.313Z,98881.75
2023-03-16T14:59:09.169Z,98884.38
2023-03-16T15:02:23.155Z,98902.06
2023-03-16T15:05:40.740Z,98904.50
2023-03-16T15:08:51.073Z,98901.94
2023-03-16T15:11:58.325Z,98898.84
2023-03-16T15:15:19.599Z,98915.22
2023-03-16T15:18:26.180Z,98910.19
2023-03-16T15:21:35.141Z,98904.13
2023-03-16T15:24:42.652Z,98905.75
2023-03-16T15:27:49.287Z,98906.41
2023-03-16T15:30:59.726Z,98898.13
2023-03-16T15:34:07.298Z,98906.00
2023-03-16T15:37:26.324Z,98907.00
2023-03-16T15:40:33.911Z,98900.47
2023-03-16T15:43:40.610Z,98901.19
2023-03-16T15:46:46.753Z,98912.28
2023-03-16T15:49:53.301Z,98909.00
2023-03-16T15:53:13.251Z,98907.34
2023-03-16T15:56:30.096Z,98912.09
2023-03-16T15:59:40.166Z,98918.53
2023-03-16T16:02:46.748Z,98904.69
2023-03-16T16:05:53.402Z,98918.75
2023-03-16T16:09:02.910Z,98918.75
2023-03-16T16:12:13.057Z,98917.25
2023-03-16T16:15:25.808Z,98919.16
2023-03-16T16:18:37.580Z,98924.53
2023-03-16T16:21:44.909Z,98924.13
2023-03-16T16:24:53.390Z,98928.31
2023-03-16T16:28:00.452Z,98934.31
2023-03-16T16:31:17.158Z,98932.78
2023-03-16T16:34:27.314Z,98937.91
2023-03-16T16:37:33.449Z,98941.75
2023-03-16T16:40:46.303Z,98937.41
2023-03-16T16:43:56.544Z,98942.38
2023-03-16T16:47:03.649Z,98937.81
2023-03-16T16:50:18.757Z,98952.94
2023-03-16T16:53:25.691Z,98948.66
2023-03-16T16:56:39.027Z,98936.78
2023-03-16T16:59:47.203Z,98946.53
2023-03-16T17:02:58.903Z,98946.56
2023-03-16T17:06:05.514Z,98952.25
2023-03-16T17:09:12.508Z,98947.03
2023-03-16T17:12:26.324Z,98960.16
2023-03-16T17:15:35.224Z,98965.41
2023-03-16T17:18:42.349Z,98958.97
2023-03-16T17:21:49.243Z,98964.59
2023-03-16T17:24:56.434Z,98965.88
2023-03-16T17:28:05.812Z,98973.72
2023-03-16T17:31:15.703Z,98967.22
2023-03-16T17:34:26.058Z,98966.81
2023-03-16T17:37:32.704Z,98965.91
2023-03-16T17:40:38.805Z,98967.91
2023-03-16T17:43:51.497Z,98964.31
2023-03-16T17:46:57.754Z,98960.44
2023-03-16T17:50:04.549Z,98959.56
2023-03-16T17:53:10.334Z,98968.38
2023-03-16T17:56:27.223Z,98962.56
2023-03-16T17:59:36.677Z,98972.91
2023-03-16T18:02:56.769Z,98975.34
2023-03-16T18:06:02.729Z,98987.34
2023-03-16T18:09:09.856Z,98982.13
2023-03-16T18:12:15.753Z,98991.03
2023-03-16T18:15:31.286Z,98988.47
2023-03-16T18:18:41.931Z,98988.66
2023-03-16T18:21:48.578Z,98989.97
2023-03-16T18:24:58.114Z,98982.00
2023-03-16T18:28:05.394Z,98979.03
2023-03-16T18:31:24.340Z,98996.84
2023-03-16T18:34:37.793Z,99005.38
2023-03-16T18:37:44.914Z,98997.88
2023-03-16T18:40:51.617Z,99000.84
2023-03-16T18:44:01.156Z,98996.88
2023-03-16T18:47:22.167Z,99004.44
2023-03-16T18:50:32.008Z,99004.53
2023-03-16T18:53:38.998Z,99004.53
2023-03-16T18:56:44.753Z,99011.06
2023-03-16T18:59:52.412Z,99016.53
2023-03-16T19:03:09.350Z,99022.06
2023-03-16T19:06:21.494Z,99018.06
2023-03-16T19:09:32.223Z,99022.09
2023-03-16T19:12:39.242Z,99014.16
2023-03-16T19:15:45.252Z,99021.97
2023-03-16T19:18:54.608Z,99021.13
2023-03-16T19:22:13.102Z,99025.06
2023-03-16T19:25:48.612Z,99029.03
2023-03-16T19:28:56.477Z,99024.03
2023-03-16T19:32:04.165Z,99031.22
2023-03-16T19:35:21.098Z,99032.94
2023-03-16T19:38:31.873Z,99029.16
2023-03-16T19:41:44.079Z,99029.72
2023-03-16T19:44:53.928Z,99038.03
2023-03-16T19:47:59.862Z,99046.09
2023-03-16T19:51:09.394Z,99035.00
2023-03-16T19:54:25.918Z,99031.22
2023-03-16T19:57:34.081Z,99033.78
2023-03-16T20:00:43.378Z,99040.66
2023-03-16T20:03:54.793Z,99034.50
2023-03-16T20:07:03.324Z,99043.00
2023-03-16T20:10:11.911Z,99048.94
2023-03-16T20:13:31.890Z,99046.19
2023-03-16T20:16:39.556Z,99043.94
2023-03-16T20:19:48.639Z,99045.59
2023-03-16T20:23:02.503Z,99041.47
2023-03-16T20:26:17.905Z,99037.78
2023-03-16T20:29:32.894Z,99040.50
2023-03-16T20:32:40.120Z,99041.63
2023-03-16T20:35:47.529Z,99039.91
2023-03-16T20:38:56.170Z,99042.84
2023-03-16T20:42:16.768Z,99037.69
2023-03-16T20:45:33.797Z,99045.00
2023-03-16T20:48:43.384Z,99047.44
2023-03-16T20:51:49.692Z,99053.78
2023-03-16T20:54:58.915Z,99047.91
2023-03-16T20:58:05.718Z,99043.84
2023-03-16T21:01:18.899Z,99042.94
2023-03-16T21:04:31.258Z,99040.00
2023-03-16T21:07:37.949Z,99041.31
2023-03-16T21:10:49.438Z,99048.81
2023-03-16T21:13:57.571Z,99038.28
2023-03-16T21:17:06.522Z,99051.34
2023-03-16T21:20:20.744Z,99037.34
2023-03-16T21:23:27.644Z,99046.25
2023-03-16T21:26:37.967Z,99050.91
2023-03-16T21:29:44.016Z,99042.56
2023-03-16T21:32:50.771Z,99048.97
2023-03-16T21:35:57.039Z,99051.88
2023-03-16T21:39:04.113Z,99052.72
2023-03-16T21:42:12.828Z,99044.22
2023-03-16T21:45:20.418Z,99049.38
2023-03-16T21:48:32.597Z,99054.56
2023-03-16T21:51:40.259Z,99059.00
2023-03-16T21:54:47.738Z,99052.75
2023-03-16T21:58:02.950Z,99059.44
2023-03-16T22:01:09.712Z,99061.00
2023-03-16T22:04:20.778Z,99060.47
2023-03-16T22:07:28.469Z,99053.31
2023-03-16T22:10:35.513Z,99048.31
2023-03-16T22:13:44.442Z,99044.53
2023-03-16T22:16:52.154Z,99040.47
2023-03-16T22:19:58.209Z,99046.28
2023-03-16T22:23:07.899Z,99045.22
2023-03-16T22:26:22.638Z,99041.38
2023-03-16T22:29:33.954Z,99040.44
2023-03-16T22:32:39.911Z,99043.22
2023-03-16T22:35:47.475Z,99040.03
2023-03-16T22:39:02.386Z,99037.53
2023-03-16T22:42:31.206Z,99024.66
2023-03-16T22:45:39.968Z,99014.09
2023-03-16T22:48:46.627Z,99021.16
2023-03-16T22:51:58.408Z,99016.56
2023-03-16T22:55:10.129Z,99003.09
2023-03-16T22:58:30.921Z,99011.25
2023-03-16T23:01:45.049Z,99007.31
2023-03-16T23:04:51.008Z,99012.03
2023-03-16T23:07:58.367Z,99005.28
2023-03-16T23:11:04.445Z,99015.78
2023-03-16T23:14:17.621Z,99008.91
2023-03-16T23:17:26.082Z,99006.72
2023-03-16T23:20:35.276Z,99017.41
2023-03-16T23:23:44.372Z,99011.56
2023-03-16T23:26:54.123Z,99012.00
2023-03-16T23:30:00.044Z,99013.91
2023-03-16T23:33:09.364Z,99027.31
2023-03-16T23:36:18.559Z,99032.91
2023-03-16T23:39:25.861Z,99024.63
2023-03-16T23:42:31.793Z,99032.00
2023-03-16T23:45:44.625Z,99023.59
2023-03-16T23:48:58.341Z,99027.22
2023-03-16T23:52:05.548Z,99026.59
2023-03-16T23:55:16.365Z,99029.38
2023-03-16T23:58:23.064Z,99028.53
